Time;durP1;ratioP1;P1;durP2;ratioP2;P2;SDS_P1;SDS_P2;PMS_P1;PMS_P2;Temp;Humidity;BMP_temperature;BMP_pressure;BME280_temperature;BME280_humidity;BME280_pressure;Samples;Min_cycle;Max_cycle;Signal;HPM_P1;HPM_P2
2023/03/28 00:01:49;;;;;;;;;;;5.30;95.10;;;;;;5069557;28;19913;-67
2023/03/28 00:04:16;;;;;;;;;;;5.30;95.10;;;;;;5069630;28;20488;-67
2023/03/28 00:06:44;;;;;;;;;;;5.20;95.10;;;;;;5069561;28;19963;-67
2023/03/28 00:09:10;;;;;;;;;;;5.20;95.10;;;;;;5069462;28;20450;-67
2023/03/28 00:11:35;;;;;;;;;;;5.20;95.10;;;;;;5068936;28;19920;-67
2023/03/28 00:14:01;;;;;;;;;;;5.20;95.20;;;;;;5068971;28;19951;-67
2023/03/28 00:16:33;;;;;;;;;;;5.20;95.10;;;;;;5050896;28;19920;-67
2023/03/28 00:18:59;;;;;;;;;;;5.20;95.20;;;;;;5051144;28;19919;-67
2023/03/28 00:21:26;;;;;;;;;;;5.20;95.10;;;;;;5068609;28;19908;-67
2023/03/28 00:23:52;;;;;;;;;;;5.20;95.10;;;;;;5068987;28;19916;-67
2023/03/28 00:26:19;;;;;;;;;;;5.20;95.10;;;;;;5068328;28;19989;-67
2023/03/28 00:28:45;;;;;;;;;;;5.20;95.10;;;;;;5050625;28;19999;-67
2023/03/28 00:31:11;;;;;;;;;;;5.20;95.10;;;;;;5068102;28;20357;-67
2023/03/28 00:33:36;;;;;;;;;;;5.10;95.10;;;;;;5069264;28;19912;-67
2023/03/28 00:36:02;;;;;;;;;;;5.10;95.10;;;;;;5069348;28;19943;-67
2023/03/28 00:38:27;;;;;;;;;;;5.10;95.10;;;;;;5069489;28;19999;-67
2023/03/28 00:40:56;;;;;;;;;;;5.10;95.10;;;;;;5068890;28;19947;-67
2023/03/28 00:43:34;;;;;;;;;;;5.10;95.10;;;;;;5051061;28;19920;-67
2023/03/28 00:46:00;;;;;;;;;;;5.10;95.10;;;;;;5069149;28;19920;-67
2023/03/28 00:48:25;;;;;;;;;;;5.10;95.20;;;;;;5050799;28;20293;-67
2023/03/28 00:50:51;;;;;;;;;;;5.10;95.10;;;;;;5068253;28;20592;-67
2023/03/28 00:53:18;;;;;;;;;;;5.10;95.10;;;;;;5068420;28;19912;-67
2023/03/28 00:56:03;;;;;;;;;;;5.00;95.10;;;;;;5068458;28;19936;-67
2023/03/28 00:58:30;;;;;;;;;;;5.00;95.10;;;;;;5068417;28;19919;-67
2023/03/28 01:00:56;;;;;;;;;;;5.00;95.20;;;;;;5049865;28;19912;-67
2023/03/28 01:03:26;;;;;;;;;;;5.00;95.10;;;;;;5068199;28;19919;-67
2023/03/28 01:05:52;;;;;;;;;;;5.00;95.10;;;;;;5068485;28;19924;-67
2023/03/28 01:08:22;;;;;;;;;;;5.00;95.10;;;;;;5068714;28;19919;-67
2023/03/28 01:10:48;;;;;;;;;;;5.00;95.40;;;;;;5068412;28;20629;-67
2023/03/28 01:13:16;;;;;;;;;;;5.00;95.10;;;;;;5068327;28;19913;-67
2023/03/28 01:15:42;;;;;;;;;;;5.00;95.10;;;;;;5051628;28;19917;-67
2023/03/28 01:18:10;;;;;;;;;;;5.00;95.10;;;;;;5068093;28;19915;-67
2023/03/28 01:20:48;;;;;;;;;;;4.90;95.10;;;;;;5070403;28;20289;-67
2023/03/28 01:23:13;;;;;;;;;;;4.90;95.10;;;;;;5067842;28;20061;-67
2023/03/28 01:25:39;;;;;;;;;;;4.90;95.10;;;;;;5049887;28;19995;-67
2023/03/28 01:28:25;;;;;;;;;;;4.90;95.10;;;;;;5067984;28;19908;-67
2023/03/28 01:30:52;;;;;;;;;;;4.90;95.10;;;;;;5035683;28;19909;-66
2023/03/28 01:33:29;;;;;;;;;;;4.90;95.10;;;;;;5068163;28;19913;-67
2023/03/28 01:35:58;;;;;;;;;;;4.90;95.10;;;;;;5068024;28;19913;-67
2023/03/28 01:38:23;;;;;;;;;;;4.90;95.10;;;;;;5068269;28;19920;-67
2023/03/28 01:40:53;;;;;;;;;;;4.80;95.10;;;;;;5067523;28;19920;-67
2023/03/28 01:43:37;;;;;;;;;;;4.80;95.10;;;;;;5050122;28;19920;-67
2023/03/28 01:46:03;;;;;;;;;;;4.80;95.10;;;;;;5067878;28;20434;-67
2023/03/28 01:48:42;;;;;;;;;;;4.80;95.10;;;;;;5068288;28;19912;-67
2023/03/28 01:51:12;;;;;;;;;;;4.80;95.20;;;;;;5067833;28;19912;-67
2023/03/28 01:53:45;;;;;;;;;;;4.80;95.20;;;;;;5067973;28;19917;-67
2023/03/28 01:56:10;;;;;;;;;;;4.80;95.10;;;;;;5050308;28;19991;-67
2023/03/28 01:58:42;;;;;;;;;;;4.80;95.10;;;;;;5068066;28;20018;-68
2023/03/28 02:01:12;;;;;;;;;;;4.80;95.10;;;;;;5068063;28;19912;-67
2023/03/28 02:03:40;;;;;;;;;;;4.70;95.10;;;;;;5050340;28;19920;-67
2023/03/28 02:06:07;;;;;;;;;;;4.70;95.10;;;;;;5049766;28;19951;-67
2023/03/28 02:08:35;;;;;;;;;;;4.70;95.20;;;;;;5067685;28;20399;-67
2023/03/28 02:11:01;;;;;;;;;;;4.70;95.10;;;;;;5049795;28;19919;-67
2023/03/28 02:13:28;;;;;;;;;;;4.70;95.10;;;;;;5067873;28;19912;-67
2023/03/28 02:15:59;;;;;;;;;;;4.70;95.10;;;;;;5067816;28;19912;-67
2023/03/28 02:18:28;;;;;;;;;;;4.70;95.20;;;;;;5067971;28;19943;-67
2023/03/28 02:20:57;;;;;;;;;;;4.70;95.10;;;;;;5067670;28;20265;-67
2023/03/28 02:23:29;;;;;;;;;;;4.70;95.10;;;;;;5067803;28;19909;-67
2023/03/28 02:25:55;;;;;;;;;;;4.70;95.10;;;;;;5068054;28;19916;-67
2023/03/28 02:28:22;;;;;;;;;;;4.70;95.10;;;;;;5067681;28;19913;-67
2023/03/28 02:30:47;;;;;;;;;;;4.60;95.10;;;;;;5067197;28;19912;-67
2023/03/28 02:33:31;;;;;;;;;;;4.70;95.10;;;;;;5067467;28;20265;-67
2023/03/28 02:36:05;;;;;;;;;;;4.60;95.00;;;;;;5067750;28;19974;-67
2023/03/28 02:38:36;;;;;;;;;;;4.60;95.10;;;;;;5067680;28;20383;-67
2023/03/28 02:41:10;;;;;;;;;;;4.60;95.10;;;;;;5067160;28;20007;-67
2023/03/28 02:43:36;;;;;;;;;;;4.60;95.10;;;;;;5067242;28;19920;-67
2023/03/28 02:46:16;;;;;;;;;;;4.60;95.10;;;;;;5067573;28;19920;-67
2023/03/28 02:48:51;;;;;;;;;;;4.50;95.10;;;;;;5067711;28;20441;-67
2023/03/28 02:51:35;;;;;;;;;;;4.60;95.10;;;;;;5049143;28;19909;-67
2023/03/28 02:54:20;;;;;;;;;;;4.50;95.10;;;;;;5067189;28;20321;-67
2023/03/28 02:56:51;;;;;;;;;;;4.50;95.10;;;;;;5067092;28;19969;-67
2023/03/28 02:59:17;;;;;;;;;;;4.50;95.10;;;;;;5067385;28;19912;-67
2023/03/28 03:01:43;;;;;;;;;;;4.50;95.10;;;;;;5067070;28;19912;-67
2023/03/28 03:04:15;;;;;;;;;;;4.50;95.10;;;;;;5067544;28;19915;-67
2023/03/28 03:06:44;;;;;;;;;;;4.50;95.10;;;;;;5067712;28;20384;-67
2023/03/28 03:09:10;;;;;;;;;;;4.50;95.10;;;;;;5067416;28;20008;-67
2023/03/28 03:11:35;;;;;;;;;;;4.50;95.10;;;;;;5067076;28;19998;-67
2023/03/28 03:14:01;;;;;;;;;;;4.50;95.10;;;;;;5067204;28;19916;-67
2023/03/28 03:16:28;;;;;;;;;;;4.40;95.10;;;;;;5067285;28;19912;-67
2023/03/28 03:18:54;;;;;;;;;;;4.40;95.10;;;;;;5069952;28;19920;-67
2023/03/28 03:21:22;;;;;;;;;;;4.40;95.10;;;;;;5067009;28;19913;-67
2023/03/28 03:23:48;;;;;;;;;;;4.40;95.10;;;;;;5067095;28;19919;-67
2023/03/28 03:26:13;;;;;;;;;;;4.40;95.10;;;;;;5068295;28;19916;-67
2023/03/28 03:28:39;;;;;;;;;;;4.40;95.10;;;;;;5060899;28;19920;-67
2023/03/28 03:31:05;;;;;;;;;;;4.40;95.10;;;;;;5065509;28;20301;-67
2023/03/28 03:33:31;;;;;;;;;;;4.40;95.10;;;;;;5070729;28;19913;-67
2023/03/28 03:35:56;;;;;;;;;;;4.30;95.10;;;;;;5070620;28;19970;-67
2023/03/28 03:38:22;;;;;;;;;;;4.40;95.10;;;;;;5070687;28;19994;-67
2023/03/28 03:40:47;;;;;;;;;;;4.40;95.10;;;;;;5070173;28;20366;-66
2023/03/28 03:43:13;;;;;;;;;;;4.30;95.10;;;;;;5070234;28;19957;-67
2023/03/28 03:45:39;;;;;;;;;;;4.30;95.10;;;;;;5070594;28;20007;-67
2023/03/28 03:48:05;;;;;;;;;;;4.30;95.10;;;;;;5070895;28;19908;-67
2023/03/28 03:50:30;;;;;;;;;;;4.30;95.10;;;;;;5051337;28;20357;-67
2023/03/28 03:52:56;;;;;;;;;;;4.30;95.10;;;;;;5070424;28;19924;-67
2023/03/28 03:55:22;;;;;;;;;;;4.30;95.20;;;;;;5070123;28;19920;-67
2023/03/28 03:57:47;;;;;;;;;;;4.30;95.10;;;;;;5070346;28;19913;-67
2023/03/28 04:00:13;;;;;;;;;;;4.30;95.10;;;;;;5070152;28;20003;-67
2023/03/28 04:02:39;;;;;;;;;;;4.30;95.20;;;;;;5070072;28;19909;-67
2023/03/28 04:05:07;;;;;;;;;;;4.30;95.20;;;;;;5051783;28;19989;-67
2023/03/28 04:07:32;;;;;;;;;;;4.30;95.10;;;;;;5070255;28;20262;-67
2023/03/28 04:09:58;;;;;;;;;;;4.30;95.20;;;;;;5070168;28;19923;-67
2023/03/28 04:12:23;;;;;;;;;;;4.20;95.20;;;;;;5052093;28;20354;-67
2023/03/28 04:14:49;;;;;;;;;;;4.20;95.10;;;;;;5069925;28;19915;-67
2023/03/28 04:17:15;;;;;;;;;;;4.20;95.10;;;;;;5070069;28;19948;-67
2023/03/28 04:19:40;;;;;;;;;;;4.20;95.10;;;;;;5051838;28;20558;-67
2023/03/28 04:22:11;;;;;;;;;;;4.20;95.10;;;;;;5051643;28;19912;-67
2023/03/28 04:24:40;;;;;;;;;;;4.20;95.10;;;;;;5069482;28;19939;-67
2023/03/28 04:27:08;;;;;;;;;;;4.20;95.10;;;;;;5069836;28;19909;-67
2023/03/28 04:29:35;;;;;;;;;;;4.20;95.10;;;;;;5062727;28;19909;-67
2023/03/28 04:32:04;;;;;;;;;;;4.20;95.10;;;;;;5067323;28;20665;-67
2023/03/28 04:34:30;;;;;;;;;;;4.20;95.10;;;;;;5069434;28;20686;-67
2023/03/28 04:37:00;;;;;;;;;;;4.20;95.10;;;;;;5068607;28;19920;-67
2023/03/28 04:39:27;;;;;;;;;;;4.20;95.10;;;;;;5068598;28;20002;-67
2023/03/28 04:41:54;;;;;;;;;;;4.10;95.20;;;;;;5050861;28;19913;-66
2023/03/28 04:44:20;;;;;;;;;;;4.10;95.10;;;;;;5069233;28;19920;-67
2023/03/28 04:46:47;;;;;;;;;;;4.10;95.10;;;;;;5069340;28;19909;-67
2023/03/28 04:49:13;;;;;;;;;;;4.10;95.10;;;;;;5069480;28;19912;-67
2023/03/28 04:51:39;;;;;;;;;;;4.10;95.00;;;;;;5069312;28;19935;-67
2023/03/28 04:54:04;;;;;;;;;;;4.10;95.10;;;;;;5068969;28;20489;-67
2023/03/28 04:56:30;;;;;;;;;;;4.10;95.10;;;;;;5069202;28;19958;-67
2023/03/28 04:58:56;;;;;;;;;;;4.10;95.10;;;;;;5069180;28;19913;-67
2023/03/28 05:01:24;;;;;;;;;;;4.10;95.10;;;;;;5068968;28;20385;-67
2023/03/28 05:03:50;;;;;;;;;;;4.10;95.10;;;;;;5069356;28;20672;-67
2023/03/28 05:06:15;;;;;;;;;;;4.10;95.10;;;;;;5068990;28;20013;-67
2023/03/28 05:08:42;;;;;;;;;;;4.10;95.10;;;;;;5050808;28;20541;-67
2023/03/28 05:11:08;;;;;;;;;;;4.10;95.10;;;;;;5068647;28;20019;-67
2023/03/28 05:13:34;;;;;;;;;;;4.10;95.10;;;;;;5068668;28;20725;-67
2023/03/28 05:15:59;;;;;;;;;;;4.10;95.00;;;;;;5068516;28;19991;-67
2023/03/28 05:18:25;;;;;;;;;;;4.10;95.10;;;;;;5068481;28;20010;-66
2023/03/28 05:20:50;;;;;;;;;;;4.00;95.10;;;;;;5067986;28;19913;-67
2023/03/28 05:23:16;;;;;;;;;;;4.00;95.00;;;;;;5057680;28;20370;-67
2023/03/28 05:25:41;;;;;;;;;;;4.00;95.10;;;;;;5070295;28;19928;-67
2023/03/28 05:28:07;;;;;;;;;;;4.00;95.10;;;;;;5067730;28;19909;-67
2023/03/28 05:30:33;;;;;;;;;;;4.00;95.00;;;;;;5060846;28;19919;-67
2023/03/28 05:32:59;;;;;;;;;;;4.00;95.00;;;;;;5067675;28;19912;-67
2023/03/28 05:35:24;;;;;;;;;;;4.00;95.00;;;;;;5067710;28;19909;-67
2023/03/28 05:37:50;;;;;;;;;;;4.00;95.00;;;;;;5066715;28;19920;-67
2023/03/28 05:40:15;;;;;;;;;;;4.00;95.00;;;;;;5066675;28;19912;-67
2023/03/28 05:42:41;;;;;;;;;;;4.00;95.00;;;;;;5081516;28;19916;-67
2023/03/28 05:45:08;;;;;;;;;;;4.00;95.00;;;;;;5068188;28;20353;-67
2023/03/28 05:47:34;;;;;;;;;;;4.00;95.10;;;;;;5068235;28;19912;-67
2023/03/28 05:49:59;;;;;;;;;;;4.00;95.00;;;;;;5049968;28;19908;-67
2023/03/28 05:52:25;;;;;;;;;;;4.00;94.90;;;;;;5067916;28;19913;-67
2023/03/28 05:54:50;;;;;;;;;;;4.00;95.00;;;;;;5068614;28;19917;-67
2023/03/28 05:57:16;;;;;;;;;;;4.00;95.00;;;;;;5068200;28;19912;-67
2023/03/28 05:59:42;;;;;;;;;;;4.00;94.90;;;;;;5068480;28;19917;-67
2023/03/28 06:02:28;;;;;;;;;;;4.00;94.90;;;;;;5067777;28;20349;-67
2023/03/28 06:04:53;;;;;;;;;;;4.00;95.00;;;;;;5081693;28;20398;-67
2023/03/28 06:07:20;;;;;;;;;;;4.00;95.00;;;;;;5088179;28;19954;-67
2023/03/28 06:09:45;;;;;;;;;;;4.00;95.00;;;;;;5087962;28;19918;-67
2023/03/28 06:12:11;;;;;;;;;;;4.00;95.00;;;;;;5087840;28;19911;-67
2023/03/28 06:14:36;;;;;;;;;;;4.00;95.00;;;;;;5072473;28;19913;-67
2023/03/28 06:17:02;;;;;;;;;;;4.00;95.00;;;;;;5068111;28;19919;-67
2023/03/28 06:19:28;;;;;;;;;;;4.00;95.00;;;;;;5068385;28;20563;-67
2023/03/28 06:21:53;;;;;;;;;;;4.00;94.90;;;;;;5067700;28;19916;-67
2023/03/28 06:24:19;;;;;;;;;;;4.00;95.00;;;;;;5047770;28;20361;-67
2023/03/28 06:26:45;;;;;;;;;;;4.00;94.90;;;;;;5047779;28;19919;-67
2023/03/28 06:29:11;;;;;;;;;;;4.00;94.90;;;;;;5054807;28;19966;-67
2023/03/28 06:31:36;;;;;;;;;;;4.00;95.00;;;;;;5067344;28;20424;-67
2023/03/28 06:34:02;;;;;;;;;;;4.10;94.90;;;;;;5067750;28;19917;-67
2023/03/28 06:36:27;;;;;;;;;;;4.10;95.00;;;;;;5067840;28;20577;-67
2023/03/28 06:38:53;;;;;;;;;;;4.10;94.90;;;;;;5070722;28;20376;-67
2023/03/28 06:41:19;;;;;;;;;;;4.10;95.00;;;;;;5077676;28;19916;-66
2023/03/28 06:43:45;;;;;;;;;;;4.10;94.90;;;;;;5077709;28;19912;-67
2023/03/28 06:46:10;;;;;;;;;;;4.10;95.00;;;;;;5057969;28;19951;-67
2023/03/28 06:48:36;;;;;;;;;;;4.10;95.00;;;;;;5080766;28;19919;-67
2023/03/28 06:51:01;;;;;;;;;;;4.10;95.00;;;;;;5085969;28;20002;-67
2023/03/28 06:53:27;;;;;;;;;;;4.10;94.90;;;;;;5074762;28;20419;-67
2023/03/28 06:55:53;;;;;;;;;;;4.20;94.90;;;;;;5067516;28;20011;-67
2023/03/28 06:58:19;;;;;;;;;;;4.10;94.90;;;;;;5068120;28;20011;-67
2023/03/28 07:00:45;;;;;;;;;;;4.10;94.90;;;;;;5080357;28;19923;-67
2023/03/28 07:03:11;;;;;;;;;;;4.20;94.90;;;;;;5082065;28;19912;-67
2023/03/28 07:05:37;;;;;;;;;;;4.20;94.90;;;;;;5080238;28;19916;-67
2023/03/28 07:08:03;;;;;;;;;;;4.20;95.00;;;;;;5062515;28;19990;-67
2023/03/28 07:10:28;;;;;;;;;;;4.20;95.00;;;;;;5083668;28;19916;-67
2023/03/28 07:12:54;;;;;;;;;;;4.20;95.00;;;;;;5072861;28;19924;-67
2023/03/28 07:15:20;;;;;;;;;;;4.20;95.00;;;;;;5061820;28;20011;-67
2023/03/28 07:17:45;;;;;;;;;;;4.30;95.00;;;;;;5070417;28;19917;-67
2023/03/28 07:20:11;;;;;;;;;;;4.30;94.90;;;;;;5073554;28;19924;-67
2023/03/28 07:22:36;;;;;;;;;;;4.30;95.00;;;;;;5049062;28;19966;-67
2023/03/28 07:25:02;;;;;;;;;;;4.30;95.00;;;;;;5068829;28;20667;-67
2023/03/28 07:27:27;;;;;;;;;;;4.30;95.00;;;;;;5069768;28;19982;-66
2023/03/28 07:29:53;;;;;;;;;;;4.30;95.00;;;;;;5069637;28;19913;-67
2023/03/28 07:32:18;;;;;;;;;;;4.30;95.00;;;;;;5069241;28;19916;-67
2023/03/28 07:34:44;;;;;;;;;;;4.40;95.10;;;;;;5070277;28;19909;-67
2023/03/28 07:37:09;;;;;;;;;;;4.40;95.10;;;;;;5069792;28;20759;-67
2023/03/28 07:39:38;;;;;;;;;;;4.40;95.10;;;;;;5069752;28;19918;-67
2023/03/28 07:42:08;;;;;;;;;;;4.40;95.10;;;;;;5082640;28;20014;-67
2023/03/28 07:44:33;;;;;;;;;;;4.50;95.20;;;;;;5055605;28;19912;-67
2023/03/28 07:46:59;;;;;;;;;;;4.50;95.20;;;;;;5069013;28;19954;-67
2023/03/28 07:49:24;;;;;;;;;;;4.60;95.10;;;;;;5069971;28;19912;-66
2023/03/28 07:51:51;;;;;;;;;;;4.60;95.20;;;;;;5069682;28;19912;-67
2023/03/28 07:54:17;;;;;;;;;;;4.60;95.20;;;;;;5069641;28;19919;-67
2023/03/28 07:56:46;;;;;;;;;;;4.70;95.10;;;;;;5069681;28;19908;-67
2023/03/28 07:59:13;;;;;;;;;;;4.80;95.00;;;;;;5069742;28;19916;-67
2023/03/28 08:01:40;;;;;;;;;;;4.80;95.00;;;;;;5069312;28;19974;-66
2023/03/28 08:04:06;;;;;;;;;;;4.90;94.90;;;;;;5069705;28;19952;-67
2023/03/28 08:06:33;;;;;;;;;;;5.00;95.00;;;;;;5069325;28;19920;-67
2023/03/28 08:08:59;;;;;;;;;;;5.10;94.80;;;;;;5068868;28;19912;-66
2023/03/28 08:11:26;;;;;;;;;;;5.10;94.90;;;;;;5068715;28;19947;-67
2023/03/28 08:13:51;;;;;;;;;;;5.20;94.60;;;;;;5062227;28;19919;-67
2023/03/28 08:16:17;;;;;;;;;;;5.30;94.90;;;;;;5089677;28;19912;-67
2023/03/28 08:18:42;;;;;;;;;;;5.40;94.30;;;;;;5089663;28;19912;-66
2023/03/28 08:21:08;;;;;;;;;;;5.50;94.20;;;;;;5089560;28;19916;-67
2023/03/28 08:23:33;;;;;;;;;;;5.50;94.00;;;;;;5075570;28;19936;-66
2023/03/28 08:26:03;;;;;;;;;;;5.60;94.00;;;;;;5069395;28;19976;-67
2023/03/28 08:28:30;;;;;;;;;;;5.70;93.90;;;;;;5069232;28;20423;-67
2023/03/28 08:30:55;;;;;;;;;;;5.70;93.90;;;;;;5068739;28;20407;-67
2023/03/28 08:33:21;;;;;;;;;;;5.80;93.70;;;;;;5051067;28;19947;-67
2023/03/28 08:35:46;;;;;;;;;;;5.80;93.70;;;;;;5069216;28;19979;-67
2023/03/28 08:38:12;;;;;;;;;;;5.80;93.70;;;;;;5069035;28;20572;-67
2023/03/28 08:40:39;;;;;;;;;;;5.90;93.90;;;;;;5068537;28;19952;-67
2023/03/28 08:43:04;;;;;;;;;;;6.00;93.60;;;;;;5068598;28;19973;-67
2023/03/28 08:45:39;;;;;;;;;;;6.00;93.60;;;;;;5068901;28;19916;-67
2023/03/28 08:48:10;;;;;;;;;;;6.10;93.50;;;;;;5068855;28;19966;-68
2023/03/28 08:50:48;;;;;;;;;;;6.10;93.60;;;;;;5067310;28;20335;-67
2023/03/28 08:53:18;;;;;;;;;;;6.20;93.70;;;;;;5041633;28;19916;-67
2023/03/28 08:55:45;;;;;;;;;;;6.20;93.50;;;;;;5051131;28;19916;-67
2023/03/28 08:58:13;;;;;;;;;;;6.20;93.50;;;;;;5050824;28;19912;-67
2023/03/28 09:00:39;;;;;;;;;;;6.20;93.40;;;;;;5073519;28;20464;-67
2023/03/28 09:03:10;;;;;;;;;;;6.20;93.40;;;;;;5077068;28;19920;-67
2023/03/28 09:05:38;;;;;;;;;;;6.20;93.60;;;;;;5077950;28;19923;-67
2023/03/28 09:08:13;;;;;;;;;;;6.20;93.50;;;;;;5076316;28;19919;-67
2023/03/28 09:10:47;;;;;;;;;;;6.20;93.60;;;;;;5074232;28;20494;-66
2023/03/28 09:13:19;;;;;;;;;;;6.20;93.70;;;;;;5076128;28;20026;-67
2023/03/28 09:15:54;;;;;;;;;;;6.20;93.70;;;;;;5076280;28;19908;-67
2023/03/28 09:18:37;;;;;;;;;;;6.20;93.90;;;;;;5054989;28;19909;-67
2023/03/28 09:21:25;;;;;;;;;;;6.20;93.80;;;;;;5078363;28;19916;-67
2023/03/28 09:23:56;;;;;;;;;;;6.30;94.00;;;;;;5076308;28;19917;-67
2023/03/28 09:26:34;;;;;;;;;;;6.30;94.00;;;;;;5063084;28;19927;-67
2023/03/28 09:29:02;;;;;;;;;;;6.30;93.90;;;;;;5077494;28;19919;-67
2023/03/28 09:31:34;;;;;;;;;;;6.30;94.00;;;;;;5062822;28;19955;-67
2023/03/28 09:34:01;;;;;;;;;;;6.30;93.90;;;;;;5078898;28;19907;-67
2023/03/28 09:36:28;;;;;;;;;;;6.40;93.90;;;;;;5086233;28;19916;-67
2023/03/28 09:38:57;;;;;;;;;;;6.50;93.90;;;;;;5069997;28;19981;-67
2023/03/28 09:41:42;;;;;;;;;;;6.50;93.80;;;;;;5071703;28;19916;-66
2023/03/28 09:44:10;;;;;;;;;;;6.50;93.70;;;;;;5071513;28;20003;-67
2023/03/28 09:46:41;;;;;;;;;;;6.60;93.70;;;;;;5076731;28;19920;-67
2023/03/28 09:49:21;;;;;;;;;;;6.60;93.60;;;;;;5073967;28;19912;-67
2023/03/28 09:51:48;;;;;;;;;;;6.60;93.60;;;;;;5077001;28;19916;-67
2023/03/28 09:54:14;;;;;;;;;;;6.70;93.70;;;;;;5071595;28;20371;-67
2023/03/28 09:56:41;;;;;;;;;;;6.70;93.70;;;;;;5069972;28;20009;-67
2023/03/28 09:59:12;;;;;;;;;;;6.70;93.60;;;;;;5058991;28;20478;-67
2023/03/28 10:01:40;;;;;;;;;;;6.70;93.60;;;;;;5057491;28;20520;-67
2023/03/28 10:04:10;;;;;;;;;;;6.80;93.60;;;;;;5066438;28;21216;-67
2023/03/28 10:06:37;;;;;;;;;;;6.80;93.60;;;;;;5064686;28;20635;-67
2023/03/28 10:09:12;;;;;;;;;;;6.80;93.60;;;;;;5067086;28;19917;-68
2023/03/28 10:12:04;;;;;;;;;;;6.90;93.50;;;;;;5067438;28;19977;-68
2023/03/28 10:14:36;;;;;;;;;;;7.00;93.50;;;;;;5073130;28;19946;-68
2023/03/28 10:17:22;;;;;;;;;;;7.00;93.40;;;;;;5087875;28;19927;-67
2023/03/28 10:19:48;;;;;;;;;;;7.10;93.30;;;;;;5073120;28;19912;-67
2023/03/28 10:22:25;;;;;;;;;;;7.20;93.30;;;;;;5084799;28;20397;-67
2023/03/28 10:24:50;;;;;;;;;;;7.20;93.20;;;;;;5067179;28;19978;-67
2023/03/28 10:27:24;;;;;;;;;;;7.20;93.20;;;;;;5067596;28;20683;-67
2023/03/28 10:29:54;;;;;;;;;;;7.20;93.20;;;;;;5065985;28;19912;-67
2023/03/28 10:32:26;;;;;;;;;;;7.20;93.30;;;;;;5067444;28;20007;-67
2023/03/28 10:35:00;;;;;;;;;;;7.20;93.20;;;;;;5068212;28;19924;-67
2023/03/28 10:37:27;;;;;;;;;;;7.30;93.30;;;;;;5071575;28;19920;-67
2023/03/28 10:39:59;;;;;;;;;;;7.30;93.30;;;;;;5071336;28;19959;-68
2023/03/28 10:42:24;;;;;;;;;;;7.30;93.40;;;;;;5070861;28;19908;-67
2023/03/28 10:45:00;;;;;;;;;;;7.40;93.20;;;;;;5071373;28;19916;-67
2023/03/28 10:47:26;;;;;;;;;;;7.40;93.30;;;;;;5071209;28;20382;-67
2023/03/28 10:49:53;;;;;;;;;;;7.50;93.10;;;;;;5071119;28;19917;-67
2023/03/28 10:52:29;;;;;;;;;;;7.50;93.30;;;;;;5070701;28;19912;-67
2023/03/28 10:54:55;;;;;;;;;;;7.60;93.20;;;;;;5053182;28;19913;-67
2023/03/28 10:57:32;;;;;;;;;;;7.70;93.20;;;;;;5070879;28;19913;-67
2023/03/28 11:00:36;;;;;;;;;;;7.70;92.90;;;;;;5071082;28;19916;-67
2023/03/28 11:03:20;;;;;;;;;;;7.80;93.10;;;;;;4991851;28;20251;-68
2023/03/28 11:05:49;;;;;;;;;;;7.90;93.00;;;;;;5008693;28;19929;-67
2023/03/28 11:08:24;;;;;;;;;;;8.00;92.90;;;;;;5024179;28;19954;-67
2023/03/28 11:10:52;;;;;;;;;;;8.10;92.90;;;;;;5070538;28;19909;-67
2023/03/28 11:13:18;;;;;;;;;;;8.20;92.90;;;;;;5070754;28;19919;-68
2023/03/28 11:16:02;;;;;;;;;;;8.20;93.00;;;;;;5070482;28;19912;-68
2023/03/28 11:18:28;;;;;;;;;;;8.20;92.80;;;;;;5070760;28;19934;-67
2023/03/28 11:21:11;;;;;;;;;;;8.30;92.80;;;;;;5070160;28;19914;-67
2023/03/28 11:23:42;;;;;;;;;;;8.40;93.00;;;;;;5070574;28;19916;-68
2023/03/28 11:26:16;;;;;;;;;;;8.40;92.90;;;;;;5070753;28;19916;-67
2023/03/28 11:28:41;;;;;;;;;;;8.50;92.90;;;;;;5070606;28;19918;-67
2023/03/28 11:31:10;;;;;;;;;;;8.50;92.80;;;;;;5070496;28;19912;-67
2023/03/28 11:33:59;;;;;;;;;;;8.60;92.60;;;;;;5070440;28;20050;-68
2023/03/28 11:36:31;;;;;;;;;;;8.70;92.50;;;;;;5062054;28;19916;-67
2023/03/28 11:39:04;;;;;;;;;;;8.70;92.80;;;;;;5069179;28;20357;-67
2023/03/28 11:41:30;;;;;;;;;;;8.80;92.60;;;;;;5069452;28;19913;-67
2023/03/28 11:44:01;;;;;;;;;;;8.80;92.60;;;;;;5069426;28;19936;-67
2023/03/28 11:46:29;;;;;;;;;;;8.90;92.60;;;;;;5050751;28;19917;-68
2023/03/28 11:49:07;;;;;;;;;;;9.00;92.70;;;;;;5069632;28;20436;-68
2023/03/28 11:51:32;;;;;;;;;;;9.00;92.60;;;;;;5051303;28;20274;-67
2023/03/28 11:54:05;;;;;;;;;;;9.10;92.70;;;;;;5069310;28;19919;-67
2023/03/28 11:56:47;;;;;;;;;;;9.10;92.70;;;;;;5069384;28;19959;-68
2023/03/28 11:59:25;;;;;;;;;;;9.20;92.60;;;;;;5069338;28;19919;-67
2023/03/28 12:01:57;;;;;;;;;;;9.20;92.50;;;;;;5078036;28;19919;-68
2023/03/28 12:04:28;;;;;;;;;;;9.30;92.60;;;;;;5077828;28;20600;-68
2023/03/28 12:06:57;;;;;;;;;;;9.40;92.40;;;;;;5076197;28;19921;-68
2023/03/28 12:09:29;;;;;;;;;;;9.50;92.60;;;;;;5068185;28;20389;-67
2023/03/28 12:11:57;;;;;;;;;;;9.50;91.90;;;;;;5068531;28;20481;-68
2023/03/28 12:14:25;;;;;;;;;;;9.50;92.50;;;;;;5074241;28;19982;-67
2023/03/28 12:16:52;;;;;;;;;;;9.60;92.60;;;;;;5075549;28;20643;-68
2023/03/28 12:19:22;;;;;;;;;;;9.60;92.50;;;;;;5078308;28;20424;-68
2023/03/28 12:21:50;;;;;;;;;;;9.60;92.50;;;;;;5079182;28;20369;-68
2023/03/28 12:24:24;;;;;;;;;;;9.60;92.40;;;;;;5069026;28;19909;-68
2023/03/28 12:27:08;;;;;;;;;;;9.70;92.40;;;;;;5051417;28;20465;-68
2023/03/28 12:29:40;;;;;;;;;;;9.70;92.10;;;;;;5069383;28;19912;-68
2023/03/28 12:32:08;;;;;;;;;;;9.80;92.20;;;;;;5069331;28;19912;-67
2023/03/28 12:34:38;;;;;;;;;;;9.80;91.90;;;;;;5069522;28;19920;-68
2023/03/28 12:37:27;;;;;;;;;;;9.80;91.20;;;;;;5069236;28;19927;-68
2023/03/28 12:40:07;;;;;;;;;;;9.90;91.60;;;;;;5060481;28;19954;-68
2023/03/28 12:42:33;;;;;;;;;;;9.90;91.90;;;;;;5068914;28;19920;-68
2023/03/28 12:45:00;;;;;;;;;;;9.90;91.70;;;;;;5068836;28;19976;-68
2023/03/28 12:47:28;;;;;;;;;;;9.90;92.00;;;;;;5087115;28;19911;-68
2023/03/28 12:49:54;;;;;;;;;;;10.00;91.80;;;;;;5089080;28;19913;-67
2023/03/28 12:52:22;;;;;;;;;;;10.00;91.80;;;;;;5084876;28;20297;-69
2023/03/28 12:55:02;;;;;;;;;;;10.00;91.80;;;;;;5068822;28;19920;-68
2023/03/28 12:57:39;;;;;;;;;;;10.00;91.70;;;;;;5069144;28;19920;-68
2023/03/28 13:00:22;;;;;;;;;;;10.10;91.60;;;;;;5067933;28;20350;-68
2023/03/28 13:03:06;;;;;;;;;;;10.10;91.80;;;;;;5068862;28;19919;-68
2023/03/28 13:05:43;;;;;;;;;;;10.20;91.80;;;;;;5068788;28;19921;-68
2023/03/28 13:08:12;;;;;;;;;;;10.20;91.80;;;;;;5063767;28;19936;-68
2023/03/28 13:10:38;;;;;;;;;;;10.30;91.70;;;;;;5067150;28;19919;-68
2023/03/28 13:13:19;;;;;;;;;;;10.30;91.60;;;;;;5062253;28;19920;-68
2023/03/28 13:16:04;;;;;;;;;;;10.30;91.30;;;;;;5063282;28;20042;-68
2023/03/28 13:18:32;;;;;;;;;;;10.40;91.70;;;;;;5068330;28;19908;-68
2023/03/28 13:21:06;;;;;;;;;;;10.40;91.50;;;;;;5125479;27;20889;-67
2023/03/28 13:23:36;;;;;;;;;;;10.50;91.50;;;;;;5125876;27;19915;-67
2023/03/28 13:26:03;;;;;;;;;;;10.50;91.30;;;;;;5124302;28;20020;-67
2023/03/28 13:28:30;;;;;;;;;;;10.50;91.30;;;;;;5125809;27;19915;-67
2023/03/28 13:31:06;;;;;;;;;;;10.50;90.90;;;;;;5119342;27;19912;-67
2023/03/28 13:33:32;;;;;;;;;;;10.50;91.00;;;;;;5121166;28;20048;-67
2023/03/28 13:35:57;;;;;;;;;;;10.50;91.10;;;;;;5125782;27;20371;-67
2023/03/28 13:38:26;;;;;;;;;;;10.50;91.30;;;;;;5125119;27;19998;-67
2023/03/28 13:40:59;;;;;;;;;;;10.60;91.10;;;;;;5125293;27;20443;-67
2023/03/28 13:43:26;;;;;;;;;;;10.60;91.30;;;;;;5125504;27;19912;-67
2023/03/28 13:45:57;;;;;;;;;;;10.60;91.10;;;;;;5125651;27;19912;-67
2023/03/28 13:48:31;;;;;;;;;;;10.60;91.40;;;;;;5125428;27;19916;-67
2023/03/28 13:50:58;;;;;;;;;;;10.60;91.20;;;;;;5124020;27;19912;-68
2023/03/28 13:53:24;;;;;;;;;;;10.70;91.00;;;;;;5123596;27;20722;-67
2023/03/28 13:56:04;;;;;;;;;;;10.70;90.90;;;;;;5125451;27;20002;-67
2023/03/28 13:58:30;;;;;;;;;;;10.70;91.10;;;;;;5125232;27;20285;-67
2023/03/28 14:01:05;;;;;;;;;;;10.70;91.10;;;;;;5124892;27;19936;-67
2023/03/28 14:03:32;;;;;;;;;;;10.70;91.20;;;;;;5123439;27;19991;-67
2023/03/28 14:05:58;;;;;;;;;;;10.70;91.00;;;;;;5123856;27;20364;-67
2023/03/28 14:08:24;;;;;;;;;;;10.70;91.00;;;;;;5119901;27;19912;-68
2023/03/28 14:10:51;;;;;;;;;;;10.80;91.00;;;;;;5124817;27;20567;-67
2023/03/28 14:13:24;;;;;;;;;;;10.80;90.40;;;;;;5123483;27;19978;-67
2023/03/28 14:15:51;;;;;;;;;;;10.70;90.60;;;;;;5124979;27;20360;-67
2023/03/28 14:18:17;;;;;;;;;;;10.80;90.80;;;;;;5124883;27;19916;-67
2023/03/28 14:20:45;;;;;;;;;;;10.80;90.70;;;;;;5124634;27;20014;-67
2023/03/28 14:23:40;;;;;;;;;;;10.80;90.60;;;;;;5124661;27;19911;-67
2023/03/28 14:26:10;;;;;;;;;;;10.90;90.90;;;;;;5115352;27;19968;-67
2023/03/28 14:28:38;;;;;;;;;;;10.90;90.70;;;;;;5124459;27;19974;-67
2023/03/28 14:31:04;;;;;;;;;;;10.90;90.00;;;;;;5118106;27;19965;-67
2023/03/28 14:33:32;;;;;;;;;;;10.90;90.70;;;;;;5110774;27;19908;-67
2023/03/28 14:36:00;;;;;;;;;;;11.00;90.20;;;;;;5110971;28;20018;-67
2023/03/28 14:38:27;;;;;;;;;;;11.00;90.20;;;;;;5110702;28;19911;-67
2023/03/28 14:40:52;;;;;;;;;;;11.00;90.50;;;;;;5110250;28;20021;-68